Pleasant Garden, NC (27313)

4:10 AM EST on November 26, 2014 (GMT -0500)
South Side | Change Station
CLOSE
Current Station
Personal Weather Station
Location: Pleasant Garden, NC
Elevation: 805 ft
Nearby Weather Stations

Elev 805 ft 35.93 °N, 79.77 °W | Updated 21 seconds ago

Rain
Rain
45.4 °F
Feels Like 44 °F
N
4.0
Wind Variable Wind from NNW
Gusts 4.0 mph

Today
High -- | Low -- °F
--% Chance of Precip.
Yesterday
High -- | Low -- °F
Precip. -- in
7:06 AM 5:06 PM
Waxing Crescent, 18% visible
Pressure 29.97 in
Visibility 5.0 miles
Clouds Mostly Cloudy 2300 ft
Mostly Cloudy 3100 ft
Overcast 3800 ft
Windchill 44 °F
Dew Point 44 °F
Humidity 95%
Rainfall 0.17 in
Snow Depth Not available.
UV 0 out of 12
Pollen 1.50 out of 12
Air Quality Not available.
Flu Activity Not available.
METAR KGSO 260854Z 36007G15KT 5SM -RA BR BKN023 BKN031 OVC038 06/05 A2997 RMK AO2 SLP148 P0006 60016 T00610050 55015 $

More Conditions Fewer Conditions

Pressure 29.97 in
Visibility 5.0 miles
Clouds Mostly Cloudy 2300 ft
Mostly Cloudy 3100 ft
Overcast 3800 ft
Windchill 44 °F
Dew Point 44 °F
Humidity 95%
Rainfall 0.17 in
Snow Depth Not available.
UV 0 out of 12
Pollen 1.50 out of 12
Air Quality Not available.
Flu Activity Not available.
METAR KGSO 260854Z 36007G15KT 5SM -RA BR BKN023 BKN031 OVC038 06/05 A2997 RMK AO2 SLP148 P0006 60016 T00610050 55015 $

More Conditions Fewer Conditions

10-Day Weather Forecast

Almanac

Astronomy

Nov. 26, 2014 Rise Set
Actual Time
Civil Twilight
Nautical Twilight
Astronomical Twilight
Moon
Length of Visible Light
Length of Day
Tomorrow will be .
, % of the Moon is Illuminated

Today's Extremes

State Highs State Lows

Community

WunderPhotos

Upload Photos

1,773,701 photos uploaded!

WunderBlogs® & News

Nearby

Air Quality

  Air Quality AQ Index Pollutant
Not available.

Snow Depth

Station Depth Elevation

Earthquake Activity

City Distance Mag. Time & Date
Minimum magnitude displayed is 2.5.

Coastal Water Temperatures

Place Temperature

Nearby Weather Stations